Carlos Casares, Argentina
Current Conditions -  °F | °C
As of 4:00 AM on Friday 19 Dec 2014 (Local Time) from SAEZ Reporting Station
Clear Clear  
Wind Chill: 75°   Ceiling: Unl
Heat Index: 75°   Visibility: 6mi
Dew Point: 57°   Wind: 12mph
Humidity: 53%   Direction: 330°NNW
Pressure: 29.68"   Gusts: NA
Location:  35.63°S, 61.35°W
Report Text: SAEZ 190700Z 33010KT CAVOK 24/14 Q1005
Loading
Personal Weather Stations






























Interactive Weather Map New forecast layout! Learn more

10-Day Weather Forecast

Advertisements
Track Severe Weather on mobile